createdAt,value
2022-09-18T00:00:59.604Z,0.95
2022-09-18T00:03:28.893Z,1.20
2022-09-18T00:05:56.462Z,1.30
2022-09-18T00:08:25.971Z,1.38
2022-09-18T00:10:53.534Z,1.38
2022-09-18T00:13:21.030Z,1.10
2022-09-18T00:15:55.601Z,1.48
2022-09-18T00:18:23.196Z,1.42
2022-09-18T00:20:50.740Z,1.60
2022-09-18T00:23:18.330Z,1.80
2022-09-18T00:25:47.417Z,1.35
2022-09-18T00:28:14.965Z,1.20
2022-09-18T00:30:42.518Z,1.45
2022-09-18T00:33:09.994Z,1.42
2022-09-18T00:35:42.959Z,1.27
2022-09-18T00:38:10.716Z,1.67
2022-09-18T00:40:38.507Z,1.85
2022-09-18T00:43:21.844Z,1.55
2022-09-18T00:45:53.906Z,1.38
2022-09-18T00:48:22.631Z,1.65
2022-09-18T00:50:50.162Z,2.22
2022-09-18T00:53:17.754Z,1.80
2022-09-18T00:55:46.417Z,2.05
2022-09-18T00:58:14.055Z,1.52
2022-09-18T01:00:43.172Z,2.33
2022-09-18T01:03:10.818Z,1.83
2022-09-18T01:05:55.808Z,1.75
2022-09-18T01:08:32.107Z,2.50
2022-09-18T01:11:14.157Z,2.05
2022-09-18T01:13:46.754Z,1.30
2022-09-18T01:16:21.024Z,1.52
2022-09-18T01:18:53.409Z,1.10
2022-09-18T01:21:22.731Z,1.20
2022-09-18T01:24:29.016Z,1.23
2022-09-18T01:27:00.386Z,1.52
2022-09-18T01:29:36.870Z,1.33
2022-09-18T01:32:07.845Z,0.90
2022-09-18T01:34:39.421Z,1.00
2022-09-18T01:37:15.661Z,1.70
2022-09-18T01:39:46.248Z,1.13
2022-09-18T01:42:14.885Z,1.35
2022-09-18T01:44:45.137Z,1.10
2022-09-18T01:47:15.033Z,0.95
2022-09-18T01:49:44.853Z,1.90
2022-09-18T01:52:16.958Z,1.55
2022-09-18T01:54:46.488Z,1.45
2022-09-18T01:57:17.218Z,1.50
2022-09-18T01:59:49.013Z,1.20
2022-09-18T02:02:19.842Z,2.15
2022-09-18T02:04:48.586Z,1.23
2022-09-18T02:07:20.040Z,1.35
2022-09-18T02:09:47.580Z,1.08
2022-09-18T02:12:18.105Z,1.13
2022-09-18T02:14:48.583Z,1.08
2022-09-18T02:17:19.130Z,1.05
2022-09-18T02:19:51.489Z,1.33
2022-09-18T02:22:21.891Z,1.02
2022-09-18T02:24:51.606Z,1.08
2022-09-18T02:29:48.324Z,1.23
2022-09-18T02:32:16.245Z,1.30
2022-09-18T02:34:43.882Z,1.35
2022-09-18T02:37:26.973Z,1.40
2022-09-18T02:40:06.890Z,1.10
2022-09-18T02:42:41.825Z,1.75
2022-09-18T02:45:18.521Z,2.40
2022-09-18T02:47:58.781Z,1.75
2022-09-18T02:50:30.796Z,1.42
2022-09-18T02:53:04.222Z,1.23
2022-09-18T02:55:38.756Z,1.45
2022-09-18T02:58:09.222Z,1.92
2022-09-18T03:00:40.225Z,1.98
2022-09-18T03:03:12.026Z,2.13
2022-09-18T03:05:39.484Z,2.20
2022-09-18T03:08:07.005Z,1.73
2022-09-18T03:10:34.517Z,1.35
2022-09-18T03:13:02.103Z,1.77
2022-09-18T03:15:29.814Z,1.58
2022-09-18T03:17:58.769Z,1.50
2022-09-18T03:20:26.337Z,1.60
2022-09-18T03:22:53.904Z,0.80
2022-09-18T03:25:21.406Z,1.13
2022-09-18T03:27:49.090Z,0.95
2022-09-18T03:30:16.831Z,1.00
2022-09-18T03:32:44.349Z,1.00
2022-09-18T03:35:13.196Z,1.30
2022-09-18T03:37:40.681Z,1.48
2022-09-18T03:40:09.644Z,1.30
2022-09-18T03:42:37.412Z,1.58
2022-09-18T03:45:06.170Z,1.15
2022-09-18T03:47:36.441Z,1.17
2022-09-18T03:50:04.689Z,1.10
2022-09-18T03:52:33.679Z,1.00
2022-09-18T03:55:01.224Z,1.17
2022-09-18T03:57:28.769Z,1.13
2022-09-18T03:59:56.395Z,1.33
2022-09-18T04:02:23.922Z,1.20
2022-09-18T04:04:51.879Z,1.13
2022-09-18T04:07:19.444Z,1.20
2022-09-18T04:09:48.289Z,1.30
2022-09-18T04:12:15.797Z,1.30
2022-09-18T04:14:43.369Z,1.20
2022-09-18T04:17:11.033Z,1.10
2022-09-18T04:19:38.533Z,1.38
2022-09-18T04:22:06.140Z,1.52
2022-09-18T04:24:35.302Z,1.02
2022-09-18T04:27:04.767Z,1.42
2022-09-18T04:29:32.590Z,1.27
2022-09-18T04:32:00.153Z,1.20
2022-09-18T04:34:27.680Z,1.20
2022-09-18T04:36:55.311Z,1.30
2022-09-18T04:39:22.833Z,1.42
2022-09-18T04:41:51.784Z,1.52
2022-09-18T04:44:20.698Z,1.33
2022-09-18T04:46:48.290Z,1.40
2022-09-18T04:49:15.841Z,1.45
2022-09-18T04:51:43.419Z,1.20
2022-09-18T04:54:11.142Z,1.52
2022-09-18T04:56:39.154Z,1.08
2022-09-18T04:59:06.694Z,1.50
2022-09-18T05:01:35.888Z,1.30
2022-09-18T05:04:03.624Z,1.17
2022-09-18T05:06:31.152Z,1.15
2022-09-18T05:08:58.870Z,1.40
2022-09-18T05:11:26.390Z,1.67
2022-09-18T05:13:56.661Z,1.25
2022-09-18T05:16:24.685Z,1.65
2022-09-18T05:18:53.798Z,1.60
2022-09-18T05:21:21.551Z,1.00
2022-09-18T05:23:49.312Z,1.30
2022-09-18T05:26:16.834Z,1.05
2022-09-18T05:28:44.329Z,1.20
2022-09-18T05:31:11.895Z,1.17
2022-09-18T05:33:41.175Z,1.20
2022-09-18T05:36:10.222Z,1.15
2022-09-18T05:38:37.825Z,1.33
2022-09-18T05:41:05.887Z,1.23
2022-09-18T05:43:33.560Z,1.55
2022-09-18T05:46:02.048Z,1.88
2022-09-18T05:48:29.754Z,1.73
2022-09-18T05:50:57.552Z,2.00
2022-09-18T05:53:26.781Z,1.90
2022-09-18T05:55:54.336Z,2.17
2022-09-18T05:58:22.232Z,2.10
2022-09-18T06:00:51.201Z,1.70
2022-09-18T06:03:19.303Z,1.85
2022-09-18T06:05:52.871Z,1.48
2022-09-18T06:08:20.621Z,1.40
2022-09-18T06:10:49.628Z,1.55
2022-09-18T06:13:18.754Z,1.42
2022-09-18T06:15:47.290Z,1.20
2022-09-18T06:18:15.414Z,1.23
2022-09-18T06:20:43.222Z,1.40
2022-09-18T06:23:10.898Z,1.10
2022-09-18T06:25:38.448Z,1.00
2022-09-18T06:28:07.264Z,1.10
2022-09-18T06:30:35.828Z,1.50
2022-09-18T06:33:05.107Z,1.80
2022-09-18T06:35:33.766Z,1.40
2022-09-18T06:38:02.934Z,1.67
2022-09-18T06:40:30.887Z,1.80
2022-09-18T06:42:58.599Z,1.48
2022-09-18T06:45:27.716Z,1.70
2022-09-18T06:47:55.452Z,1.73
2022-09-18T06:50:23.271Z,1.63
2022-09-18T06:52:50.821Z,1.47
2022-09-18T06:55:19.143Z,2.28
2022-09-18T06:57:54.452Z,1.88
2022-09-18T07:00:22.147Z,1.33
2022-09-18T07:02:57.387Z,1.30
2022-09-18T07:05:26.237Z,1.20
2022-09-18T07:07:53.871Z,1.10
2022-09-18T07:10:21.722Z,1.50
2022-09-18T07:12:49.866Z,1.30
2022-09-18T07:15:17.781Z,1.80
2022-09-18T07:17:45.599Z,1.30
2022-09-18T07:20:15.163Z,1.37
2022-09-18T07:22:47.002Z,1.30
2022-09-18T07:25:14.889Z,1.50
2022-09-18T07:27:42.393Z,1.40
2022-09-18T07:30:10.956Z,1.55
2022-09-18T07:32:38.437Z,1.60
2022-09-18T07:35:06.735Z,1.70
2022-09-18T07:37:35.814Z,1.40
2022-09-18T07:40:03.786Z,1.30
2022-09-18T07:42:31.353Z,1.60
2022-09-18T07:44:58.856Z,1.40
2022-09-18T07:47:26.332Z,1.15
2022-09-18T07:49:53.847Z,1.33
2022-09-18T07:52:21.398Z,0.90
2022-09-18T07:54:50.912Z,1.10
2022-09-18T07:57:18.534Z,1.95
2022-09-18T07:59:46.055Z,0.98
2022-09-18T08:02:13.866Z,1.15
2022-09-18T08:04:41.509Z,0.98
2022-09-18T08:07:09.010Z,1.15
2022-09-18T08:09:36.503Z,1.07
2022-09-18T08:12:05.679Z,0.85
2022-09-18T08:14:33.174Z,1.00
2022-09-18T08:17:00.737Z,1.25
2022-09-18T08:19:28.262Z,1.92
2022-09-18T08:21:55.773Z,4.15
2022-09-18T08:24:23.272Z,1.67
2022-09-18T08:26:50.799Z,1.47
2022-09-18T08:29:19.827Z,1.23
2022-09-18T08:31:47.520Z,0.90
2022-09-18T08:34:15.217Z,0.70
2022-09-18T08:36:42.730Z,0.60
2022-09-18T08:39:10.609Z,0.70
2022-09-18T08:42:08.549Z,0.75
2022-09-18T08:44:42.664Z,0.65
2022-09-18T08:47:14.738Z,0.90
2022-09-18T08:49:47.587Z,0.80
2022-09-18T08:52:16.483Z,0.80
2022-09-18T08:54:48.638Z,0.77
2022-09-18T08:57:20.577Z,1.00
2022-09-18T08:59:52.579Z,0.80
2022-09-18T09:02:31.393Z,1.38
2022-09-18T09:05:02.905Z,1.30
2022-09-18T09:07:44.115Z,1.25
2022-09-18T09:10:22.385Z,1.60
2022-09-18T09:12:55.337Z,3.47
2022-09-18T09:15:31.840Z,1.85
2022-09-18T09:18:11.906Z,1.50
2022-09-18T09:20:46.586Z,1.88
2022-09-18T09:23:20.366Z,2.30
2022-09-18T09:25:56.549Z,2.35
2022-09-18T09:28:26.362Z,1.13
2022-09-18T09:30:58.288Z,0.90
2022-09-18T09:33:28.248Z,0.80
2022-09-18T09:35:56.943Z,0.80
2022-09-18T09:38:34.919Z,1.20
2022-09-18T09:41:11.317Z,0.70
2022-09-18T09:43:42.374Z,0.60
2022-09-18T09:46:21.286Z,0.57
2022-09-18T09:48:51.979Z,0.50
2022-09-18T09:51:23.493Z,0.80
2022-09-18T09:53:53.105Z,1.10
2022-09-18T09:56:29.011Z,1.77
2022-09-18T09:59:02.275Z,1.25
2022-09-18T10:01:36.937Z,0.90
2022-09-18T10:04:18.322Z,1.10
2022-09-18T10:06:51.954Z,0.90
2022-09-18T10:09:24.760Z,0.90
2022-09-18T10:11:57.432Z,0.90
2022-09-18T10:14:27.095Z,0.82
2022-09-18T10:16:57.157Z,0.87
2022-09-18T10:19:37.082Z,0.90
2022-09-18T10:22:06.590Z,0.60
2022-09-18T10:24:42.253Z,1.00
2022-09-18T10:27:11.472Z,0.90
2022-09-18T10:29:39.221Z,0.70
2022-09-18T10:32:11.108Z,1.00
2022-09-18T10:34:41.351Z,1.25
2022-09-18T10:37:15.681Z,0.93
2022-09-18T10:39:49.825Z,0.80
2022-09-18T10:42:18.869Z,0.93
2022-09-18T10:44:50.703Z,1.10
2022-09-18T10:47:24.696Z,0.68
2022-09-18T10:49:54.409Z,1.13
2022-09-18T10:52:28.377Z,1.40
2022-09-18T10:55:00.880Z,0.87
2022-09-18T10:57:31.155Z,1.10
2022-09-18T10:59:58.618Z,0.93
2022-09-18T11:02:29.817Z,1.30
2022-09-18T11:04:57.644Z,1.25
2022-09-18T11:07:26.167Z,1.30
2022-09-18T11:09:53.752Z,1.15
2022-09-18T11:12:24.344Z,1.23
2022-09-18T11:15:03.164Z,1.42
2022-09-18T11:17:34.401Z,1.20
2022-09-18T11:20:03.231Z,1.10
2022-09-18T11:22:35.294Z,1.23
2022-09-18T11:25:19.181Z,1.10
2022-09-18T11:27:48.968Z,1.25
2022-09-18T11:30:20.261Z,1.25
2022-09-18T11:32:50.213Z,0.70
2022-09-18T11:35:20.249Z,0.65
2022-09-18T11:37:50.868Z,0.73
2022-09-18T11:40:20.913Z,1.40
2022-09-18T11:42:50.632Z,0.88
2022-09-18T11:45:36.645Z,1.00
2022-09-18T11:48:15.420Z,1.08
2022-09-18T11:50:43.029Z,1.30
2022-09-18T11:53:14.329Z,1.48
2022-09-18T11:55:44.920Z,1.88
2022-09-18T11:58:14.986Z,1.73
2022-09-18T12:00:46.537Z,0.90
2022-09-18T12:03:19.705Z,1.30
2022-09-18T12:05:53.702Z,1.00
2022-09-18T12:08:25.049Z,1.27
2022-09-18T12:10:58.395Z,1.48
2022-09-18T12:13:49.852Z,1.40
2022-09-18T12:16:21.234Z,1.33
2022-09-18T12:18:55.167Z,1.50
2022-09-18T12:21:27.681Z,1.10
2022-09-18T12:23:55.549Z,1.10
2022-09-18T12:26:27.565Z,1.25
2022-09-18T12:29:06.012Z,1.52
2022-09-18T12:31:38.512Z,1.67
2022-09-18T12:34:12.843Z,0.90
2022-09-18T12:36:49.008Z,0.90
2022-09-18T12:39:28.897Z,0.75
2022-09-18T12:42:05.283Z,0.80
2022-09-18T12:44:51.417Z,1.02
2022-09-18T12:47:41.012Z,0.82
2022-09-18T12:50:29.551Z,1.08
2022-09-18T12:53:09.885Z,0.93
2022-09-18T12:55:52.165Z,1.38
2022-09-18T12:58:37.589Z,0.80
2022-09-18T13:01:10.744Z,1.10
2022-09-18T13:03:39.884Z,0.57
2022-09-18T13:06:12.057Z,0.60
2022-09-18T13:08:43.426Z,0.85
2022-09-18T13:11:23.475Z,1.40
2022-09-18T13:13:53.804Z,0.90
2022-09-18T13:16:27.364Z,0.63
2022-09-18T13:18:57.051Z,0.70
2022-09-18T13:21:29.594Z,0.75
2022-09-18T13:23:58.216Z,0.80
2022-09-18T13:26:27.620Z,1.60
2022-09-18T13:28:55.272Z,1.50
2022-09-18T13:31:27.738Z,1.00
2022-09-18T13:33:56.866Z,0.57
2022-09-18T13:36:28.640Z,0.63
2022-09-18T13:38:57.153Z,0.85
2022-09-18T13:41:24.989Z,0.60
2022-09-18T13:43:55.592Z,1.23
2022-09-18T13:46:33.025Z,0.70
2022-09-18T13:49:02.336Z,0.65
2022-09-18T13:51:33.053Z,0.70
2022-09-18T13:54:17.670Z,0.70
2022-09-18T13:57:14.817Z,0.70
2022-09-18T13:59:47.666Z,0.80
2022-09-18T14:02:30.934Z,1.10
2022-09-18T14:05:01.771Z,1.00
2022-09-18T14:08:04.174Z,0.75
2022-09-18T14:10:34.816Z,0.60
2022-09-18T14:13:17.487Z,0.60
2022-09-18T14:15:53.359Z,0.82
2022-09-18T14:18:25.356Z,0.52
2022-09-18T14:20:54.924Z,0.70
2022-09-18T14:24:11.673Z,0.50
2022-09-18T14:27:22.870Z,0.60
2022-09-18T14:29:55.439Z,0.93
2022-09-18T14:32:24.509Z,0.50
2022-09-18T14:34:54.545Z,0.50
2022-09-18T14:37:27.331Z,0.75
2022-09-18T14:39:55.958Z,0.77
2022-09-18T14:42:32.585Z,0.90
2022-09-18T14:45:10.717Z,0.82
2022-09-18T14:47:38.890Z,0.93
2022-09-18T14:50:26.352Z,0.93
2022-09-18T14:52:54.015Z,0.82
2022-09-18T14:55:23.894Z,0.90
2022-09-18T14:57:55.478Z,0.80
2022-09-18T15:00:25.759Z,1.10
2022-09-18T15:02:56.428Z,1.02
2022-09-18T15:05:24.375Z,1.80
2022-09-18T15:07:58.845Z,1.77
2022-09-18T15:10:27.656Z,1.02
2022-09-18T15:12:57.331Z,1.23
2022-09-18T15:15:30.621Z,1.75
2022-09-18T15:17:58.304Z,1.55
2022-09-18T15:20:27.265Z,2.15
2022-09-18T15:22:55.072Z,2.93
2022-09-18T15:25:24.692Z,3.47
2022-09-18T15:27:52.702Z,2.23
2022-09-18T15:30:22.669Z,2.05
2022-09-18T15:32:53.607Z,2.22
2022-09-18T15:35:23.308Z,1.73
2022-09-18T15:37:53.001Z,2.00
2022-09-18T15:40:22.971Z,2.33
2022-09-18T15:42:58.063Z,1.67
2022-09-18T15:45:28.833Z,1.90
2022-09-18T15:47:58.666Z,1.38
2022-09-18T15:50:37.939Z,1.58
2022-09-18T15:53:16.468Z,1.67
2022-09-18T15:55:54.374Z,1.20
2022-09-18T15:58:42.220Z,1.60
2022-09-18T16:01:18.647Z,1.92
2022-09-18T16:03:46.453Z,1.10
2022-09-18T16:06:23.586Z,1.80
2022-09-18T16:08:54.191Z,1.30
2022-09-18T16:11:42.235Z,1.60
2022-09-18T16:14:52.531Z,1.30
2022-09-18T16:17:37.010Z,1.20
2022-09-18T16:20:24.190Z,0.82
2022-09-18T16:22:53.113Z,1.02
2022-09-18T16:25:22.861Z,1.00
2022-09-18T16:27:54.107Z,1.08
2022-09-18T16:30:21.596Z,0.93
2022-09-18T16:32:50.468Z,1.30
2022-09-18T16:35:18.014Z,1.23
2022-09-18T16:37:45.548Z,1.13
2022-09-18T16:40:17.869Z,1.13
2022-09-18T16:42:45.767Z,1.00
2022-09-18T16:45:15.405Z,1.48
2022-09-18T16:47:45.427Z,1.60
2022-09-18T16:50:14.821Z,1.25
2022-09-18T16:52:42.343Z,0.90
2022-09-18T16:55:10.472Z,1.02
2022-09-18T16:57:38.625Z,1.40
2022-09-18T17:00:07.936Z,1.40
2022-09-18T17:02:36.179Z,1.40
2022-09-18T17:05:03.842Z,1.90
2022-09-18T17:07:32.693Z,2.38
2022-09-18T17:10:00.184Z,1.60
2022-09-18T17:12:27.821Z,1.73
2022-09-18T17:14:55.324Z,1.50
2022-09-18T17:17:22.821Z,1.50
2022-09-18T17:19:50.349Z,1.52
2022-09-18T17:22:22.039Z,1.63
2022-09-18T17:24:52.042Z,1.40
2022-09-18T17:27:20.161Z,1.30
2022-09-18T17:29:47.684Z,1.98
2022-09-18T17:32:15.237Z,2.30
2022-09-18T17:34:43.487Z,1.80
2022-09-18T17:37:11.061Z,2.33
2022-09-18T17:39:38.933Z,1.98
2022-09-18T17:42:08.229Z,1.95
2022-09-18T17:44:36.988Z,2.08
2022-09-18T17:47:04.677Z,1.80
2022-09-18T17:49:33.137Z,2.22
2022-09-18T17:52:00.748Z,2.23
2022-09-18T17:54:28.751Z,1.92
2022-09-18T17:56:56.629Z,1.73
2022-09-18T17:59:25.539Z,2.10
2022-09-18T18:01:53.405Z,2.38
2022-09-18T18:04:20.946Z,1.85
2022-09-18T18:06:49.335Z,2.35
2022-09-18T18:09:17.238Z,2.10
2022-09-18T18:11:46.143Z,1.55
2022-09-18T18:14:14.528Z,1.60
2022-09-18T18:16:43.650Z,1.27
2022-09-18T18:19:12.726Z,1.25
2022-09-18T18:21:42.135Z,1.73
2022-09-18T18:24:14.948Z,1.75
2022-09-18T18:26:42.768Z,1.77
2022-09-18T18:29:11.633Z,1.67
2022-09-18T18:31:40.272Z,1.42
2022-09-18T18:34:10.598Z,1.77
2022-09-18T18:36:39.271Z,1.73
2022-09-18T18:39:09.880Z,1.75
2022-09-18T18:41:38.054Z,2.38
2022-09-18T18:44:06.089Z,1.70
2022-09-18T18:46:35.799Z,2.00
2022-09-18T18:49:05.711Z,2.38
2022-09-18T18:51:36.210Z,2.40
2022-09-18T18:54:04.613Z,1.83
2022-09-18T18:56:33.462Z,2.20
2022-09-18T18:59:02.417Z,2.22
2022-09-18T19:01:30.951Z,1.92
2022-09-18T19:04:00.053Z,1.88
2022-09-18T19:06:28.169Z,2.10
2022-09-18T19:08:58.415Z,1.75
2022-09-18T19:11:26.517Z,2.23
2022-09-18T19:13:56.849Z,2.25
2022-09-18T19:16:25.323Z,2.10
2022-09-18T19:18:54.247Z,2.65
2022-09-18T19:21:22.342Z,2.50
2022-09-18T19:23:51.798Z,2.88
2022-09-18T19:26:22.027Z,2.15
2022-09-18T19:28:51.532Z,2.00
2022-09-18T19:31:20.062Z,2.13
2022-09-18T19:33:50.777Z,2.95
2022-09-18T19:36:18.351Z,2.50
2022-09-18T19:38:45.881Z,1.77
2022-09-18T19:41:17.845Z,2.58
2022-09-18T19:43:46.912Z,1.85
2022-09-18T19:46:17.383Z,2.28
2022-09-18T19:48:45.052Z,2.38
2022-09-18T19:51:12.559Z,1.63
2022-09-18T19:53:40.095Z,1.90
2022-09-18T19:56:22.588Z,1.95
2022-09-18T19:58:57.620Z,1.20
2022-09-18T20:01:25.147Z,1.80
2022-09-18T20:03:53.438Z,1.77
2022-09-18T20:06:22.800Z,2.13
2022-09-18T20:08:50.484Z,1.70
2022-09-18T20:11:18.195Z,2.00
2022-09-18T20:13:50.618Z,1.80
2022-09-18T20:16:21.034Z,1.77
2022-09-18T20:18:48.769Z,1.75
2022-09-18T20:21:18.902Z,2.33
2022-09-18T20:23:46.890Z,1.60
2022-09-18T20:26:16.327Z,2.35
2022-09-18T20:28:44.312Z,2.10
2022-09-18T20:31:13.026Z,2.13
2022-09-18T20:33:42.221Z,1.80
2022-09-18T20:36:11.338Z,2.05
2022-09-18T20:38:40.275Z,1.80
2022-09-18T20:41:09.597Z,1.93
2022-09-18T20:43:38.678Z,1.95
2022-09-18T20:46:07.643Z,1.85
2022-09-18T20:48:36.632Z,1.83
2022-09-18T20:51:09.122Z,1.90
2022-09-18T20:53:38.187Z,2.17
2022-09-18T20:56:06.119Z,1.90
2022-09-18T20:58:34.090Z,1.80
2022-09-18T21:01:08.190Z,1.80
2022-09-18T21:03:35.913Z,1.80
2022-09-18T21:06:21.735Z,2.20
2022-09-18T21:08:53.352Z,1.95
2022-09-18T21:11:24.331Z,2.10
2022-09-18T21:13:53.441Z,1.88
2022-09-18T21:16:21.992Z,1.90
2022-09-18T21:18:53.452Z,1.80
2022-09-18T21:21:21.438Z,2.40
2022-09-18T21:23:56.266Z,2.53
2022-09-18T21:26:26.757Z,2.43
2022-09-18T21:28:56.457Z,2.22
2022-09-18T21:31:24.560Z,2.15
2022-09-18T21:33:53.142Z,2.40
2022-09-18T21:36:21.660Z,2.33
2022-09-18T21:38:50.790Z,2.00
2022-09-18T21:41:19.564Z,2.05
2022-09-18T21:43:50.369Z,2.00
2022-09-18T21:46:20.042Z,1.70
2022-09-18T21:48:48.704Z,1.85
2022-09-18T21:51:17.765Z,1.75
2022-09-18T21:53:45.358Z,1.65
2022-09-18T21:56:16.933Z,1.67
2022-09-18T21:58:45.799Z,1.77
2022-09-18T22:01:18.183Z,1.70
2022-09-18T22:03:50.567Z,2.17
2022-09-18T22:06:19.152Z,2.63
2022-09-18T22:08:50.782Z,2.25
2022-09-18T22:11:18.472Z,2.10
2022-09-18T22:13:46.379Z,2.75
2022-09-18T22:16:15.319Z,2.23
2022-09-18T22:18:43.140Z,2.47
2022-09-18T22:21:20.357Z,1.90
2022-09-18T22:23:52.804Z,2.15
2022-09-18T22:26:20.686Z,2.20
2022-09-18T22:28:49.846Z,2.10
2022-09-18T22:31:18.972Z,1.67
2022-09-18T22:33:47.335Z,2.20
2022-09-18T22:36:15.611Z,2.33
2022-09-18T22:38:43.296Z,2.03
2022-09-18T22:41:11.074Z,1.95
2022-09-18T22:43:38.612Z,2.00
2022-09-18T22:46:07.725Z,2.03
2022-09-18T22:48:37.095Z,2.22
2022-09-18T22:51:06.792Z,1.67
2022-09-18T22:53:34.961Z,1.73
2022-09-18T22:56:04.162Z,1.70
2022-09-18T22:58:31.733Z,1.67
2022-09-18T23:01:06.704Z,1.77
2022-09-18T23:03:36.773Z,2.20
2022-09-18T23:06:06.282Z,1.88
2022-09-18T23:08:34.863Z,1.70
2022-09-18T23:11:03.648Z,1.40
2022-09-18T23:13:32.703Z,1.63
2022-09-18T23:16:05.138Z,1.67
2022-09-18T23:18:32.788Z,1.70
2022-09-18T23:21:03.402Z,1.55
2022-09-18T23:23:32.087Z,1.67
2022-09-18T23:26:08.344Z,1.88
2022-09-18T23:28:37.129Z,1.50
2022-09-18T23:31:26.994Z,1.75
2022-09-18T23:33:55.975Z,1.27
2022-09-18T23:36:26.838Z,1.33
2022-09-18T23:38:55.509Z,1.52
2022-09-18T23:41:23.329Z,1.60
2022-09-18T23:43:52.367Z,1.58
2022-09-18T23:46:20.091Z,1.90
2022-09-18T23:48:54.632Z,1.95
2022-09-18T23:51:22.662Z,1.73
2022-09-18T23:53:51.553Z,1.70
2022-09-18T23:56:19.510Z,1.80
2022-09-18T23:58:47.061Z,1.50
